createdAt,value
2022-07-29T00:00:37.240Z,0.00
2022-07-29T00:01:37.238Z,0.00
2022-07-29T00:02:37.250Z,0.00
2022-07-29T00:03:37.250Z,0.00
2022-07-29T00:04:37.291Z,0.00
2022-07-29T00:05:37.198Z,0.00
2022-07-29T00:06:37.195Z,0.00
2022-07-29T00:07:37.161Z,0.00
2022-07-29T00:08:37.163Z,0.00
2022-07-29T00:09:43.071Z,0.00
2022-07-29T00:10:37.104Z,0.00
2022-07-29T00:11:37.080Z,0.00
2022-07-29T00:12:37.057Z,0.00
2022-07-29T00:13:37.071Z,0.00
2022-07-29T00:14:37.034Z,0.00
2022-07-29T00:15:37.033Z,0.00
2022-07-29T00:16:37.171Z,0.00
2022-07-29T00:17:37.009Z,0.00
2022-07-29T00:18:37.046Z,0.00
2022-07-29T00:19:37.036Z,0.00
2022-07-29T00:20:37.057Z,0.00
2022-07-29T00:21:37.026Z,0.00
2022-07-29T00:22:36.958Z,0.00
2022-07-29T00:23:37.067Z,0.00
2022-07-29T00:24:39.929Z,0.00
2022-07-29T00:25:36.942Z,0.00
2022-07-29T00:26:36.944Z,0.00
2022-07-29T00:27:36.901Z,0.00
2022-07-29T00:28:36.914Z,0.00
2022-07-29T00:29:36.883Z,0.00
2022-07-29T00:30:36.871Z,0.00
2022-07-29T00:31:36.908Z,0.00
2022-07-29T00:32:36.859Z,0.00
2022-07-29T00:33:36.865Z,0.00
2022-07-29T00:34:36.847Z,0.00
2022-07-29T00:35:36.821Z,0.00
2022-07-29T00:36:36.843Z,0.00
2022-07-29T00:37:36.803Z,0.00
2022-07-29T00:38:36.783Z,0.00
2022-07-29T00:39:39.783Z,0.00
2022-07-29T00:40:36.793Z,0.00
2022-07-29T00:41:36.873Z,0.00
2022-07-29T00:42:36.757Z,0.00
2022-07-29T00:43:36.760Z,0.00
2022-07-29T00:44:36.725Z,0.00
2022-07-29T00:45:36.724Z,0.00
2022-07-29T00:46:36.756Z,0.00
2022-07-29T00:47:36.705Z,0.00
2022-07-29T00:48:36.744Z,0.00
2022-07-29T00:49:36.676Z,0.00
2022-07-29T00:50:36.666Z,0.00
2022-07-29T00:51:36.675Z,0.00
2022-07-29T00:52:36.647Z,0.00
2022-07-29T00:53:36.645Z,0.00
2022-07-29T00:54:44.737Z,0.00
2022-07-29T00:55:36.644Z,0.00
2022-07-29T00:56:36.647Z,0.00
2022-07-29T00:57:36.589Z,0.00
2022-07-29T00:58:36.686Z,0.00
2022-07-29T00:59:36.579Z,0.00
2022-07-29T01:00:36.607Z,0.00
2022-07-29T01:01:36.607Z,0.00
2022-07-29T01:02:36.611Z,0.00
2022-07-29T01:03:36.552Z,0.00
2022-07-29T01:04:36.522Z,0.00
2022-07-29T01:05:50.070Z,0.00
2022-07-29T01:06:36.500Z,0.00
2022-07-29T01:07:36.491Z,0.00
2022-07-29T01:08:36.483Z,0.00
2022-07-29T01:09:46.138Z,0.00
2022-07-29T01:10:36.471Z,0.00
2022-07-29T01:11:36.442Z,0.00
2022-07-29T01:12:36.433Z,0.00
2022-07-29T01:13:36.472Z,0.00
2022-07-29T01:14:36.423Z,0.00
2022-07-29T01:15:36.402Z,0.00
2022-07-29T01:16:36.457Z,0.00
2022-07-29T01:17:36.388Z,0.00
2022-07-29T01:18:36.376Z,0.00
2022-07-29T01:19:36.366Z,0.00
2022-07-29T01:20:36.356Z,0.00
2022-07-29T01:21:36.345Z,0.00
2022-07-29T01:22:36.338Z,0.00
2022-07-29T01:23:36.327Z,0.00
2022-07-29T01:24:39.327Z,0.00
2022-07-29T01:25:36.335Z,0.00
2022-07-29T01:26:36.297Z,0.00
2022-07-29T01:27:36.311Z,0.00
2022-07-29T01:28:36.284Z,0.00
2022-07-29T01:29:39.016Z,0.00
2022-07-29T01:30:36.251Z,0.00
2022-07-29T01:31:36.510Z,0.00
2022-07-29T01:32:37.253Z,0.00
2022-07-29T01:33:36.229Z,0.00
2022-07-29T01:34:36.220Z,0.00
2022-07-29T01:35:36.200Z,0.00
2022-07-29T01:36:36.196Z,0.00
2022-07-29T01:37:36.180Z,0.00
2022-07-29T01:38:36.190Z,0.00
2022-07-29T01:39:39.173Z,0.00
2022-07-29T01:40:36.162Z,0.00
2022-07-29T01:41:36.139Z,0.00
2022-07-29T01:42:36.134Z,0.00
2022-07-29T01:43:36.137Z,0.00
2022-07-29T01:44:36.114Z,0.00
2022-07-29T01:45:36.152Z,0.00
2022-07-29T01:46:36.151Z,0.00
2022-07-29T01:47:36.082Z,0.00
2022-07-29T01:48:36.121Z,0.00
2022-07-29T01:49:36.055Z,0.00
2022-07-29T01:50:36.044Z,0.00
2022-07-29T01:51:36.066Z,0.00
2022-07-29T01:52:36.040Z,0.00
2022-07-29T01:53:37.978Z,0.00
2022-07-29T01:54:39.006Z,0.00
2022-07-29T01:55:36.042Z,0.00
2022-07-29T01:56:35.985Z,0.00
2022-07-29T01:57:35.980Z,0.00
2022-07-29T01:58:35.968Z,0.00
2022-07-29T01:59:35.966Z,0.00
2022-07-29T02:00:35.960Z,0.00
2022-07-29T02:01:36.008Z,0.00
2022-07-29T02:02:35.928Z,0.00
2022-07-29T02:03:35.916Z,0.00
2022-07-29T02:04:35.959Z,0.00
2022-07-29T02:05:35.890Z,0.00
2022-07-29T02:06:35.881Z,0.00
2022-07-29T02:07:35.891Z,0.00
2022-07-29T02:08:35.861Z,0.00
2022-07-29T02:09:38.857Z,0.00
2022-07-29T02:10:35.860Z,0.00
2022-07-29T02:11:35.828Z,0.00
2022-07-29T02:12:35.853Z,0.00
2022-07-29T02:13:35.813Z,0.00
2022-07-29T02:14:35.793Z,0.00
2022-07-29T02:15:35.842Z,0.00
2022-07-29T02:16:35.794Z,0.00
2022-07-29T02:17:35.774Z,0.00
2022-07-29T02:18:35.753Z,0.00
2022-07-29T02:19:35.773Z,0.00
2022-07-29T02:20:35.766Z,0.00
2022-07-29T02:21:35.723Z,0.00
2022-07-29T02:22:35.713Z,0.00
2022-07-29T02:23:50.270Z,0.00
2022-07-29T02:24:39.713Z,0.00
2022-07-29T02:25:38.309Z,0.00
2022-07-29T02:26:35.675Z,0.00
2022-07-29T02:27:35.667Z,0.00
2022-07-29T02:28:35.655Z,0.00
2022-07-29T02:29:35.666Z,0.00
2022-07-29T02:30:35.626Z,0.00
2022-07-29T02:31:35.706Z,0.00
2022-07-29T02:32:35.607Z,0.00
2022-07-29T02:33:35.609Z,0.00
2022-07-29T02:34:35.609Z,0.00
2022-07-29T02:35:35.588Z,0.00
2022-07-29T02:36:35.570Z,0.00
2022-07-29T02:37:35.581Z,0.00
2022-07-29T02:38:35.544Z,0.00
2022-07-29T02:39:38.554Z,0.00
2022-07-29T02:40:35.553Z,0.00
2022-07-29T02:41:35.530Z,0.00
2022-07-29T02:42:35.514Z,0.00
2022-07-29T02:43:35.503Z,0.00
2022-07-29T02:44:35.498Z,0.00
2022-07-29T02:45:35.483Z,0.00
2022-07-29T02:46:35.513Z,0.00
2022-07-29T02:47:41.578Z,0.00
2022-07-29T02:48:35.444Z,0.00
2022-07-29T02:49:35.631Z,0.00
2022-07-29T02:50:35.425Z,0.00
2022-07-29T02:51:44.084Z,0.00
2022-07-29T02:52:35.406Z,0.00
2022-07-29T02:53:35.397Z,0.00
2022-07-29T02:54:38.515Z,0.00
2022-07-29T02:55:35.414Z,0.00
2022-07-29T02:56:35.365Z,0.00
2022-07-29T02:57:35.386Z,0.00
2022-07-29T02:58:36.344Z,0.00
2022-07-29T02:59:35.335Z,0.00
2022-07-29T03:00:35.330Z,0.00
2022-07-29T03:01:35.330Z,0.00
2022-07-29T03:02:35.332Z,0.00
2022-07-29T03:03:35.298Z,0.00
2022-07-29T03:04:35.327Z,0.00
2022-07-29T03:05:35.280Z,0.00
2022-07-29T03:06:38.307Z,0.00
2022-07-29T03:07:35.249Z,0.00
2022-07-29T03:08:35.238Z,0.00
2022-07-29T03:09:38.229Z,0.00
2022-07-29T03:10:35.254Z,0.00
2022-07-29T03:11:46.397Z,0.00
2022-07-29T03:12:35.202Z,0.00
2022-07-29T03:13:35.190Z,0.00
2022-07-29T03:14:35.172Z,0.00
2022-07-29T03:15:35.233Z,0.00
2022-07-29T03:16:39.385Z,0.00
2022-07-29T03:17:35.150Z,0.00
2022-07-29T03:18:35.141Z,0.00
2022-07-29T03:19:35.156Z,0.00
2022-07-29T03:20:35.132Z,0.00
2022-07-29T03:21:35.187Z,0.00
2022-07-29T03:22:35.083Z,0.00
2022-07-29T03:23:36.816Z,0.00
2022-07-29T03:24:38.022Z,0.00
2022-07-29T03:25:35.026Z,0.00
2022-07-29T03:26:35.006Z,0.00
2022-07-29T03:27:35.034Z,0.00
2022-07-29T03:28:35.074Z,0.00
2022-07-29T03:29:34.975Z,0.00
2022-07-29T03:30:34.953Z,0.00
2022-07-29T03:31:34.992Z,0.00
2022-07-29T03:32:34.935Z,0.00
2022-07-29T03:33:34.925Z,0.00
2022-07-29T03:34:34.917Z,0.00
2022-07-29T03:35:34.905Z,0.00
2022-07-29T03:36:34.921Z,0.00
2022-07-29T03:37:34.880Z,0.00
2022-07-29T03:38:34.867Z,0.00
2022-07-29T03:39:37.903Z,0.00
2022-07-29T03:40:34.885Z,0.00
2022-07-29T03:41:34.987Z,0.00
2022-07-29T03:42:34.839Z,0.00
2022-07-29T03:43:34.836Z,0.00
2022-07-29T03:44:35.809Z,0.00
2022-07-29T03:45:34.802Z,0.00
2022-07-29T03:46:34.871Z,0.00
2022-07-29T03:47:49.616Z,0.00
2022-07-29T03:48:35.961Z,0.00
2022-07-29T03:49:34.755Z,0.00
2022-07-29T03:50:34.752Z,0.00
2022-07-29T03:51:34.741Z,0.00
2022-07-29T03:52:34.721Z,0.00
2022-07-29T03:53:34.717Z,0.00
2022-07-29T03:54:37.719Z,0.00
2022-07-29T03:55:34.710Z,0.00
2022-07-29T03:56:34.708Z,0.00
2022-07-29T03:57:34.673Z,0.00
2022-07-29T03:58:34.672Z,5.62
2022-07-29T03:59:34.653Z,5.62
2022-07-29T04:00:34.633Z,5.62
2022-07-29T04:01:34.695Z,5.62
2022-07-29T04:02:34.635Z,5.62
2022-07-29T04:03:34.689Z,5.62
2022-07-29T04:04:34.596Z,5.62
2022-07-29T04:05:34.599Z,5.62
2022-07-29T04:06:34.585Z,5.62
2022-07-29T04:07:34.565Z,5.62
2022-07-29T04:08:34.546Z,5.62
2022-07-29T04:09:37.555Z,5.62
2022-07-29T04:10:35.857Z,5.62
2022-07-29T04:11:34.562Z,11.25
2022-07-29T04:12:35.518Z,11.25
2022-07-29T04:13:34.517Z,11.25
2022-07-29T04:14:34.494Z,11.25
2022-07-29T04:15:34.552Z,11.25
2022-07-29T04:16:34.529Z,11.25
2022-07-29T04:17:34.468Z,16.88
2022-07-29T04:18:34.503Z,16.88
2022-07-29T04:19:34.453Z,22.50
2022-07-29T04:20:34.431Z,22.50
2022-07-29T04:21:34.429Z,22.50
2022-07-29T04:22:34.411Z,22.50
2022-07-29T04:23:34.414Z,28.12
2022-07-29T04:24:38.390Z,28.12
2022-07-29T04:25:34.400Z,28.12
2022-07-29T04:26:34.402Z,33.75
2022-07-29T04:27:34.359Z,33.75
2022-07-29T04:28:34.352Z,33.75
2022-07-29T04:29:34.339Z,33.75
2022-07-29T04:30:35.343Z,33.75
2022-07-29T04:31:34.445Z,39.38
2022-07-29T04:32:34.316Z,39.38
2022-07-29T04:33:34.327Z,39.38
2022-07-29T04:34:34.292Z,39.38
2022-07-29T04:35:37.934Z,45.00
2022-07-29T04:36:34.271Z,45.00
2022-07-29T04:37:34.256Z,45.00
2022-07-29T04:38:34.264Z,45.00
2022-07-29T04:39:37.234Z,45.00
2022-07-29T04:40:34.237Z,45.00
2022-07-29T04:41:34.538Z,45.00
2022-07-29T04:42:34.215Z,50.62
2022-07-29T04:43:36.960Z,50.62
2022-07-29T04:44:34.190Z,56.25
2022-07-29T04:45:34.178Z,61.88
2022-07-29T04:46:34.245Z,61.88
2022-07-29T04:47:34.160Z,67.50
2022-07-29T04:48:34.148Z,73.12
2022-07-29T04:49:34.129Z,73.12
2022-07-29T04:50:34.119Z,73.12
2022-07-29T04:51:34.212Z,73.12
2022-07-29T04:52:34.107Z,67.50
2022-07-29T04:53:34.092Z,67.50
2022-07-29T04:54:37.082Z,67.50
2022-07-29T04:55:34.143Z,67.50
2022-07-29T04:56:34.071Z,67.50
2022-07-29T04:57:34.049Z,73.12
2022-07-29T04:58:34.046Z,84.38
2022-07-29T04:59:34.020Z,90.00
2022-07-29T05:00:34.023Z,101.25
2022-07-29T05:01:34.089Z,118.12
2022-07-29T05:02:34.059Z,129.38
2022-07-29T05:03:34.022Z,135.00
2022-07-29T05:04:33.981Z,140.62
2022-07-29T05:05:33.965Z,146.25
2022-07-29T05:06:33.963Z,157.50
2022-07-29T05:07:33.947Z,163.12
2022-07-29T05:08:33.934Z,168.75
2022-07-29T05:09:36.934Z,174.38
2022-07-29T05:10:33.963Z,174.38
2022-07-29T05:11:33.913Z,168.75
2022-07-29T05:12:33.906Z,168.75
2022-07-29T05:13:46.303Z,168.75
2022-07-29T05:14:33.876Z,174.38
2022-07-29T05:15:33.882Z,180.00
2022-07-29T05:16:33.855Z,185.62
2022-07-29T05:17:33.836Z,191.25
2022-07-29T05:18:33.829Z,191.25
2022-07-29T05:19:33.826Z,191.25
2022-07-29T05:20:33.808Z,196.88
2022-07-29T05:21:33.787Z,202.50
2022-07-29T05:22:33.787Z,208.12
2022-07-29T05:23:33.806Z,213.75
2022-07-29T05:24:36.773Z,225.00
2022-07-29T05:25:44.251Z,225.00
2022-07-29T05:26:33.751Z,236.25
2022-07-29T05:27:33.740Z,253.12
2022-07-29T05:28:33.730Z,264.38
2022-07-29T05:29:44.298Z,270.00
2022-07-29T05:30:33.711Z,281.25
2022-07-29T05:31:33.700Z,292.50
2022-07-29T05:32:33.713Z,298.12
2022-07-29T05:33:36.474Z,303.75
2022-07-29T05:34:33.667Z,315.00
2022-07-29T05:35:33.658Z,315.00
2022-07-29T05:36:33.646Z,326.25
2022-07-29T05:37:33.651Z,337.50
2022-07-29T05:38:33.638Z,354.38
2022-07-29T05:39:48.934Z,365.62
2022-07-29T05:40:33.615Z,376.88
2022-07-29T05:41:33.608Z,382.50
2022-07-29T05:42:33.584Z,393.75
2022-07-29T05:43:33.564Z,399.38
2022-07-29T05:44:33.564Z,405.00
2022-07-29T05:45:33.581Z,410.62
2022-07-29T05:46:34.587Z,410.62
2022-07-29T05:47:33.526Z,410.62
2022-07-29T05:48:33.519Z,399.38
2022-07-29T05:49:33.557Z,393.75
2022-07-29T05:50:33.536Z,388.12
2022-07-29T05:51:34.492Z,393.75
2022-07-29T05:52:33.472Z,399.38
2022-07-29T05:53:33.469Z,405.00
2022-07-29T05:54:36.450Z,416.25
2022-07-29T05:55:33.483Z,433.12
2022-07-29T05:56:33.441Z,455.62
2022-07-29T05:57:33.461Z,478.12
2022-07-29T05:58:33.409Z,495.00
2022-07-29T05:59:33.400Z,511.88
2022-07-29T06:00:33.398Z,528.75
2022-07-29T06:01:33.451Z,545.62
2022-07-29T06:02:33.373Z,551.25
2022-07-29T06:03:33.363Z,562.50
2022-07-29T06:04:33.405Z,573.75
2022-07-29T06:05:33.376Z,590.62
2022-07-29T06:06:33.332Z,601.88
2022-07-29T06:07:33.876Z,607.50
2022-07-29T06:08:33.319Z,601.88
2022-07-29T06:09:36.526Z,601.88
2022-07-29T06:10:33.353Z,601.88
2022-07-29T06:11:33.274Z,613.12
2022-07-29T06:12:33.273Z,613.12
2022-07-29T06:13:33.265Z,613.12
2022-07-29T06:14:33.247Z,607.50
2022-07-29T06:15:33.323Z,601.88
2022-07-29T06:16:33.295Z,607.50
2022-07-29T06:17:33.228Z,607.50
2022-07-29T06:18:33.247Z,601.88
2022-07-29T06:19:33.197Z,596.25
2022-07-29T06:20:33.297Z,590.62
2022-07-29T06:21:33.168Z,596.25
2022-07-29T06:22:33.166Z,607.50
2022-07-29T06:23:33.188Z,613.12
2022-07-29T06:24:36.138Z,618.75
2022-07-29T06:25:33.155Z,601.88
2022-07-29T06:26:37.775Z,596.25
2022-07-29T06:27:33.133Z,596.25
2022-07-29T06:28:33.117Z,585.00
2022-07-29T06:29:33.098Z,573.75
2022-07-29T06:30:33.155Z,551.25
2022-07-29T06:31:33.075Z,534.38
2022-07-29T06:32:33.083Z,517.50
2022-07-29T06:33:33.053Z,506.25
2022-07-29T06:34:33.057Z,500.62
2022-07-29T06:35:38.536Z,489.38
2022-07-29T06:36:33.039Z,483.75
2022-07-29T06:37:33.016Z,478.12
2022-07-29T06:38:34.355Z,466.88
2022-07-29T06:39:37.014Z,455.62
2022-07-29T06:40:32.995Z,444.38
2022-07-29T06:41:32.966Z,433.12
2022-07-29T06:42:32.992Z,421.88
2022-07-29T06:43:32.942Z,399.38
2022-07-29T06:44:33.945Z,365.62
2022-07-29T06:45:32.924Z,331.88
2022-07-29T06:46:32.997Z,286.88
2022-07-29T06:47:32.903Z,236.25
2022-07-29T06:48:32.900Z,196.88
2022-07-29T06:49:32.977Z,163.12
2022-07-29T06:50:32.907Z,151.88
2022-07-29T06:51:32.928Z,157.50
2022-07-29T06:52:32.869Z,168.75
2022-07-29T06:53:32.849Z,185.62
2022-07-29T06:54:35.848Z,191.25
2022-07-29T06:55:32.929Z,196.88
2022-07-29T06:56:38.250Z,202.50
2022-07-29T06:57:32.804Z,202.50
2022-07-29T06:58:32.778Z,208.12
2022-07-29T06:59:35.762Z,213.75
2022-07-29T07:00:32.775Z,213.75
2022-07-29T07:01:32.831Z,213.75
2022-07-29T07:02:32.790Z,219.38
2022-07-29T07:03:32.748Z,230.62
2022-07-29T07:04:32.731Z,241.88
2022-07-29T07:05:32.722Z,247.50
2022-07-29T07:06:32.713Z,241.88
2022-07-29T07:07:32.721Z,230.62
2022-07-29T07:08:32.692Z,213.75
2022-07-29T07:09:40.689Z,196.88
2022-07-29T07:10:32.687Z,185.62
2022-07-29T07:11:32.662Z,174.38
2022-07-29T07:12:32.670Z,163.12
2022-07-29T07:13:32.632Z,157.50
2022-07-29T07:14:32.636Z,151.88
2022-07-29T07:15:39.096Z,151.88
2022-07-29T07:16:32.914Z,146.25
2022-07-29T07:17:32.583Z,151.88
2022-07-29T07:18:32.586Z,151.88
2022-07-29T07:19:32.582Z,151.88
2022-07-29T07:20:32.578Z,151.88
2022-07-29T07:21:32.595Z,157.50
2022-07-29T07:22:35.729Z,157.50
2022-07-29T07:23:32.524Z,157.50
2022-07-29T07:24:35.526Z,163.12
2022-07-29T07:25:32.539Z,168.75
2022-07-29T07:26:32.506Z,180.00
2022-07-29T07:27:32.488Z,191.25
2022-07-29T07:28:32.486Z,196.88
2022-07-29T07:29:32.466Z,208.12
2022-07-29T07:30:32.469Z,213.75
2022-07-29T07:31:32.501Z,219.38
2022-07-29T07:32:32.468Z,225.00
2022-07-29T07:33:32.432Z,230.62
2022-07-29T07:34:32.451Z,230.62
2022-07-29T07:35:32.410Z,241.88
2022-07-29T07:36:32.401Z,247.50
2022-07-29T07:37:32.400Z,264.38
2022-07-29T07:38:32.382Z,286.88
2022-07-29T07:39:35.402Z,303.75
2022-07-29T07:40:32.388Z,320.62
2022-07-29T07:41:32.724Z,337.50
2022-07-29T07:42:32.345Z,343.12
2022-07-29T07:43:32.327Z,365.62
2022-07-29T07:44:32.328Z,393.75
2022-07-29T07:45:33.329Z,421.88
2022-07-29T07:46:32.342Z,466.88
2022-07-29T07:47:32.291Z,517.50
2022-07-29T07:48:32.281Z,568.12
2022-07-29T07:49:32.265Z,630.00
2022-07-29T07:50:32.258Z,697.50
2022-07-29T07:51:32.283Z,770.62
2022-07-29T07:52:32.247Z,855.00
2022-07-29T07:53:32.488Z,945.00
2022-07-29T07:54:35.219Z,1012.50
2022-07-29T07:55:53.401Z,1057.50
2022-07-29T07:56:35.347Z,1091.25
2022-07-29T07:57:32.180Z,1248.75
2022-07-29T07:58:32.184Z,1395.00
2022-07-29T07:59:32.169Z,1006.88
2022-07-29T08:00:32.150Z,894.38
2022-07-29T08:01:55.740Z,815.62
2022-07-29T08:02:33.184Z,759.38
2022-07-29T08:03:32.121Z,720.00
2022-07-29T08:04:32.122Z,680.62
2022-07-29T08:05:32.109Z,635.62
2022-07-29T08:06:32.125Z,573.75
2022-07-29T08:07:32.082Z,523.12
2022-07-29T08:08:32.075Z,500.62
2022-07-29T08:09:35.068Z,489.38
2022-07-29T08:10:32.102Z,483.75
2022-07-29T08:11:34.070Z,483.75
2022-07-29T08:12:33.034Z,472.50
2022-07-29T08:13:32.036Z,461.25
2022-07-29T08:14:32.018Z,455.62
2022-07-29T08:15:31.997Z,495.00
2022-07-29T08:16:32.036Z,506.25
2022-07-29T08:17:31.986Z,506.25
2022-07-29T08:18:31.981Z,500.62
2022-07-29T08:19:31.967Z,495.00
2022-07-29T08:20:31.948Z,483.75
2022-07-29T08:21:31.984Z,478.12
2022-07-29T08:22:31.943Z,461.25
2022-07-29T08:23:46.259Z,455.62
2022-07-29T08:24:35.917Z,444.38
2022-07-29T08:25:31.924Z,427.50
2022-07-29T08:26:31.886Z,399.38
2022-07-29T08:27:43.347Z,365.62
2022-07-29T08:28:31.879Z,354.38
2022-07-29T08:29:31.850Z,343.12
2022-07-29T08:30:31.845Z,343.12
2022-07-29T08:31:31.897Z,354.38
2022-07-29T08:32:52.699Z,365.62
2022-07-29T08:33:32.812Z,376.88
2022-07-29T08:34:31.810Z,382.50
2022-07-29T08:35:35.561Z,382.50
2022-07-29T08:36:31.802Z,393.75
2022-07-29T08:37:31.782Z,388.12
2022-07-29T08:38:31.765Z,382.50
2022-07-29T08:39:34.785Z,382.50
2022-07-29T08:40:32.470Z,388.12
2022-07-29T08:41:31.793Z,399.38
2022-07-29T08:42:31.721Z,416.25
2022-07-29T08:43:31.707Z,433.12
2022-07-29T08:44:31.727Z,444.38
2022-07-29T08:45:31.717Z,461.25
2022-07-29T08:46:31.727Z,500.62
2022-07-29T08:47:31.677Z,540.00
2022-07-29T08:48:31.669Z,579.38
2022-07-29T08:49:31.657Z,624.38
2022-07-29T08:50:31.646Z,680.62
2022-07-29T08:51:31.636Z,753.75
2022-07-29T08:52:31.626Z,821.25
2022-07-29T08:53:31.635Z,894.38
2022-07-29T08:54:34.604Z,928.12
2022-07-29T08:55:31.599Z,945.00
2022-07-29T08:56:31.585Z,961.88
2022-07-29T08:57:31.569Z,990.00
2022-07-29T08:58:31.560Z,1035.00
2022-07-29T08:59:31.558Z,1102.50
2022-07-29T09:00:31.558Z,1170.00
2022-07-29T09:01:35.563Z,1237.50
2022-07-29T09:02:31.519Z,1276.88
2022-07-29T09:03:31.596Z,1321.88
2022-07-29T09:04:31.489Z,1344.38
2022-07-29T09:05:31.482Z,1411.88
2022-07-29T09:06:31.478Z,1530.00
2022-07-29T09:07:34.795Z,1693.12
2022-07-29T09:08:31.502Z,1923.75
2022-07-29T09:09:34.442Z,2227.50
2022-07-29T09:10:31.476Z,2002.50
2022-07-29T09:11:31.424Z,1811.25
2022-07-29T09:12:36.127Z,2773.12
2022-07-29T09:13:31.421Z,1991.25
2022-07-29T09:14:31.396Z,2767.50
2022-07-29T09:15:31.404Z,3881.25
2022-07-29T09:16:51.929Z,2368.12
2022-07-29T09:17:32.391Z,2328.75
2022-07-29T09:18:31.732Z,2261.25
2022-07-29T09:19:31.345Z,2205.00
2022-07-29T09:20:31.336Z,1957.50
2022-07-29T09:21:31.318Z,1811.25
2022-07-29T09:22:31.308Z,1760.62
2022-07-29T09:23:31.298Z,1794.38
2022-07-29T09:24:34.328Z,1833.75
2022-07-29T09:25:31.303Z,1861.88
2022-07-29T09:26:31.269Z,1738.12
2022-07-29T09:27:32.207Z,1631.25
2022-07-29T09:28:31.261Z,1569.38
2022-07-29T09:29:35.825Z,1496.25
2022-07-29T09:30:31.871Z,1383.75
2022-07-29T09:31:31.277Z,1282.50
2022-07-29T09:32:31.213Z,1181.25
2022-07-29T09:33:31.206Z,1136.25
2022-07-29T09:34:35.722Z,1265.62
2022-07-29T09:35:31.180Z,1231.88
2022-07-29T09:36:31.164Z,1023.75
2022-07-29T09:37:31.156Z,1006.88
2022-07-29T09:38:31.144Z,1051.88
2022-07-29T09:39:34.185Z,1141.88
2022-07-29T09:40:31.148Z,1243.12
2022-07-29T09:41:31.113Z,1299.38
2022-07-29T09:42:31.118Z,1383.75
2022-07-29T09:43:31.103Z,1428.75
2022-07-29T09:44:31.088Z,1614.38
2022-07-29T09:45:31.097Z,1608.75
2022-07-29T09:46:31.117Z,1648.12
2022-07-29T09:47:31.059Z,1575.00
2022-07-29T09:48:31.046Z,1535.62
2022-07-29T09:49:31.032Z,1586.25
2022-07-29T09:50:31.048Z,1676.25
2022-07-29T09:51:38.477Z,1783.12
2022-07-29T09:52:31.007Z,1980.00
2022-07-29T09:53:30.990Z,2053.12
2022-07-29T09:54:33.990Z,1800.00
2022-07-29T09:55:31.029Z,1710.00
2022-07-29T09:56:30.979Z,1783.12
2022-07-29T09:57:31.483Z,1710.00
2022-07-29T09:58:30.941Z,1732.50
2022-07-29T09:59:30.928Z,1749.38
2022-07-29T10:00:30.977Z,1895.62
2022-07-29T10:01:30.911Z,2058.75
2022-07-29T10:02:30.894Z,2340.00
2022-07-29T10:03:30.974Z,2373.75
2022-07-29T10:04:30.873Z,2379.38
2022-07-29T10:05:36.728Z,1906.88
2022-07-29T10:06:30.855Z,1980.00
2022-07-29T10:07:30.860Z,2255.62
2022-07-29T10:08:30.824Z,3487.50
2022-07-29T10:09:33.823Z,3110.62
2022-07-29T10:10:30.875Z,4179.38
2022-07-29T10:11:35.417Z,2475.00
2022-07-29T10:12:31.794Z,2295.00
2022-07-29T10:13:30.796Z,1586.25
2022-07-29T10:14:30.781Z,1591.88
2022-07-29T10:15:30.790Z,1569.38
2022-07-29T10:16:30.834Z,1479.38
2022-07-29T10:17:30.740Z,1423.12
2022-07-29T10:18:30.730Z,1372.50
2022-07-29T10:19:30.719Z,1338.75
2022-07-29T10:20:30.717Z,1344.38
2022-07-29T10:21:35.225Z,1411.88
2022-07-29T10:22:51.960Z,1496.25
2022-07-29T10:23:46.401Z,1620.00
2022-07-29T10:24:33.670Z,2621.25
2022-07-29T10:25:30.671Z,1721.25
2022-07-29T10:26:30.691Z,2593.12
2022-07-29T10:27:30.644Z,2216.25
2022-07-29T10:28:30.623Z,2266.88
2022-07-29T10:29:30.618Z,2953.12
2022-07-29T10:30:30.606Z,3808.12
2022-07-29T10:31:30.708Z,2795.62
2022-07-29T10:32:30.581Z,2486.25
2022-07-29T10:33:30.577Z,2767.50
2022-07-29T10:34:30.555Z,3808.12
2022-07-29T10:35:30.562Z,4151.25
2022-07-29T10:36:30.562Z,2773.12
2022-07-29T10:37:36.144Z,2632.50
2022-07-29T10:38:31.532Z,2221.88
2022-07-29T10:39:41.879Z,1906.88
2022-07-29T10:40:30.519Z,1951.88
2022-07-29T10:41:32.407Z,1912.50
2022-07-29T10:42:33.352Z,1890.00
2022-07-29T10:43:30.469Z,2075.62
2022-07-29T10:44:30.462Z,2025.00
2022-07-29T10:45:30.455Z,2272.50
2022-07-29T10:46:30.464Z,2733.75
2022-07-29T10:47:30.472Z,3690.00
2022-07-29T10:48:30.508Z,3633.75
2022-07-29T10:49:30.963Z,4027.50
2022-07-29T10:50:30.409Z,3639.38
2022-07-29T10:51:30.389Z,3465.00
2022-07-29T10:52:30.454Z,3031.88
2022-07-29T10:53:33.873Z,4224.38
2022-07-29T10:54:33.360Z,3521.25
2022-07-29T10:55:30.353Z,3003.75
2022-07-29T10:56:30.351Z,2790.00
2022-07-29T10:57:53.751Z,4471.88
2022-07-29T10:58:31.343Z,3875.62
2022-07-29T10:59:32.360Z,4680.00
2022-07-29T11:00:30.294Z,4179.38
2022-07-29T11:02:41.954Z,4151.25
2022-07-29T11:03:30.359Z,4522.50
2022-07-29T11:04:30.255Z,3656.25
2022-07-29T11:05:40.111Z,3746.25
2022-07-29T11:06:30.235Z,4348.12
2022-07-29T11:07:45.615Z,4134.38
2022-07-29T11:08:31.234Z,2885.62
2022-07-29T11:09:37.447Z,2756.25
2022-07-29T11:10:31.671Z,2953.12
2022-07-29T11:11:30.176Z,2469.38
2022-07-29T11:12:30.173Z,2784.38
2022-07-29T11:13:30.150Z,2688.75
2022-07-29T11:14:30.187Z,2390.62
2022-07-29T11:15:31.619Z,2216.25
2022-07-29T11:16:30.138Z,2019.38
2022-07-29T11:17:46.942Z,1968.75
2022-07-29T11:18:31.137Z,1968.75
2022-07-29T11:19:30.841Z,1895.62
2022-07-29T11:20:30.120Z,1805.62
2022-07-29T11:21:35.948Z,1732.50
2022-07-29T11:22:31.074Z,1670.62
2022-07-29T11:23:34.069Z,1620.00
2022-07-29T11:24:33.168Z,1575.00
2022-07-29T11:25:42.503Z,1530.00
2022-07-29T11:26:31.026Z,1496.25
2022-07-29T11:27:30.021Z,1485.00
2022-07-29T11:28:30.004Z,1485.00
2022-07-29T11:29:29.988Z,1524.38
2022-07-29T11:30:29.985Z,1693.12
2022-07-29T11:31:29.978Z,1670.62
2022-07-29T11:32:29.966Z,1755.00
2022-07-29T11:34:30.939Z,2064.38
2022-07-29T11:35:38.534Z,2086.88
2022-07-29T11:36:29.920Z,1957.50
2022-07-29T11:37:29.910Z,1912.50
2022-07-29T11:38:31.980Z,1850.62
2022-07-29T11:39:37.059Z,1766.25
2022-07-29T11:40:29.958Z,1715.62
2022-07-29T11:41:29.858Z,1681.88
2022-07-29T11:42:34.448Z,1642.50
2022-07-29T11:43:30.849Z,1603.12
2022-07-29T11:44:29.846Z,1586.25
2022-07-29T11:45:42.848Z,1552.50
2022-07-29T11:46:29.804Z,1524.38
2022-07-29T11:47:29.828Z,1501.88
2022-07-29T11:49:32.073Z,1468.12
2022-07-29T11:50:29.774Z,1479.38
2022-07-29T11:51:32.999Z,1507.50
2022-07-29T11:52:29.764Z,1563.75
2022-07-29T11:53:32.567Z,1603.12
2022-07-29T11:54:32.737Z,1541.25
2022-07-29T11:55:32.592Z,1541.25
2022-07-29T11:56:30.715Z,1563.75
2022-07-29T11:57:36.158Z,1636.88
2022-07-29T11:58:29.688Z,1648.12
2022-07-29T11:59:33.563Z,1603.12
2022-07-29T12:00:29.669Z,1580.62
2022-07-29T12:01:29.670Z,1541.25
2022-07-29T12:02:38.271Z,1507.50
2022-07-29T12:03:35.065Z,1496.25
2022-07-29T12:04:29.632Z,1513.12
2022-07-29T12:05:36.933Z,1552.50
2022-07-29T12:06:29.603Z,1586.25
2022-07-29T12:07:02.108Z,1479.38
2022-07-29T12:07:33.781Z,1591.88
2022-07-29T12:08:29.602Z,1586.25
2022-07-29T12:09:40.145Z,1580.62
2022-07-29T12:10:30.787Z,1546.88
2022-07-29T12:11:29.609Z,1490.62
2022-07-29T12:12:29.545Z,1445.62
2022-07-29T12:13:37.108Z,1389.38
2022-07-29T12:14:29.524Z,1338.75
2022-07-29T12:15:39.212Z,1271.25
2022-07-29T12:16:30.562Z,1209.38
2022-07-29T12:17:30.655Z,1164.38
2022-07-29T12:18:29.476Z,1136.25
2022-07-29T12:19:29.473Z,1113.75
2022-07-29T12:20:29.461Z,1091.25
2022-07-29T12:21:29.527Z,1074.38
2022-07-29T12:22:29.446Z,1057.50
2022-07-29T12:23:29.549Z,1051.88
2022-07-29T12:24:32.416Z,1057.50
2022-07-29T12:25:33.950Z,1085.62
2022-07-29T12:26:29.428Z,1119.38
2022-07-29T12:27:29.738Z,1136.25
2022-07-29T12:28:29.377Z,1147.50
2022-07-29T12:29:34.955Z,1158.75
2022-07-29T12:30:29.358Z,1170.00
2022-07-29T12:31:42.956Z,1181.25
2022-07-29T12:32:29.372Z,1203.75
2022-07-29T12:33:29.336Z,1220.62
2022-07-29T12:34:29.319Z,1231.88
2022-07-29T12:35:29.390Z,1237.50
2022-07-29T12:36:29.306Z,1231.88
2022-07-29T12:37:38.983Z,1215.00
2022-07-29T12:38:29.311Z,1192.50
2022-07-29T12:39:32.255Z,1164.38
2022-07-29T12:40:29.302Z,1130.62